createdAt,value
2022-09-28T00:01:53.115Z,8.50
2022-09-28T00:04:25.275Z,8.60
2022-09-28T00:06:57.247Z,8.60
2022-09-28T00:09:29.553Z,8.60
2022-09-28T00:12:01.713Z,8.60
2022-09-28T00:14:34.084Z,8.60
2022-09-28T00:17:06.198Z,8.60
2022-09-28T00:19:40.516Z,8.60
2022-09-28T00:22:13.456Z,8.60
2022-09-28T00:24:45.568Z,8.60
2022-09-28T00:27:18.123Z,8.70
2022-09-28T00:29:50.023Z,8.70
2022-09-28T00:32:24.571Z,8.70
2022-09-28T00:34:57.265Z,8.70
2022-09-28T00:37:29.211Z,8.70
2022-09-28T00:40:01.878Z,8.70
2022-09-28T00:42:33.909Z,8.70
2022-09-28T00:45:08.686Z,8.70
2022-09-28T00:47:54.774Z,8.70
2022-09-28T00:50:35.636Z,8.70
2022-09-28T00:53:26.495Z,8.70
2022-09-28T00:56:07.510Z,8.70
2022-09-28T00:58:47.879Z,8.70
2022-09-28T01:01:22.673Z,8.70
2022-09-28T01:03:55.066Z,8.70
2022-09-28T01:06:33.262Z,8.80
2022-09-28T01:09:09.980Z,8.80
2022-09-28T01:12:02.906Z,8.70
2022-09-28T01:14:35.251Z,8.80
2022-09-28T01:17:26.250Z,8.80
2022-09-28T01:20:07.143Z,8.80
2022-09-28T01:23:23.753Z,8.80
2022-09-28T01:26:34.253Z,8.80
2022-09-28T01:29:37.018Z,8.80
2022-09-28T01:32:47.651Z,8.80
2022-09-28T01:35:51.844Z,8.90
2022-09-28T01:38:36.639Z,8.90
2022-09-28T01:41:17.422Z,8.90
2022-09-28T01:43:56.421Z,8.90
2022-09-28T01:46:39.213Z,9.00
2022-09-28T01:49:35.796Z,9.00
2022-09-28T01:52:24.053Z,9.10
2022-09-28T01:55:13.147Z,9.10
2022-09-28T01:58:09.230Z,9.10
2022-09-28T02:00:56.213Z,9.10
2022-09-28T02:03:55.719Z,9.20
2022-09-28T02:06:45.901Z,9.20
2022-09-28T02:10:03.476Z,9.20
2022-09-28T02:12:46.292Z,9.30
2022-09-28T02:15:45.889Z,9.30
2022-09-28T02:18:27.075Z,9.30
2022-09-28T02:21:30.733Z,9.40
2022-09-28T02:24:22.522Z,9.50
2022-09-28T02:27:08.424Z,9.40
2022-09-28T02:29:46.069Z,9.40
2022-09-28T02:32:20.815Z,9.50
2022-09-28T02:34:55.476Z,9.50
2022-09-28T02:37:28.195Z,9.50
2022-09-28T02:40:00.506Z,9.50
2022-09-28T02:42:53.714Z,9.50
2022-09-28T02:46:15.838Z,9.50
2022-09-28T02:49:22.039Z,9.60
2022-09-28T02:52:09.450Z,9.60
2022-09-28T02:55:27.808Z,9.60
2022-09-28T02:58:33.837Z,9.60
2022-09-28T03:01:18.253Z,9.60
2022-09-28T03:04:36.013Z,9.60
2022-09-28T03:07:41.565Z,9.60
2022-09-28T03:10:37.451Z,9.60
2022-09-28T03:13:18.593Z,9.60
2022-09-28T03:15:50.990Z,9.60
2022-09-28T03:18:22.988Z,9.60
2022-09-28T03:20:54.947Z,9.60
2022-09-28T03:23:26.842Z,9.60
2022-09-28T03:25:59.601Z,9.60
2022-09-28T03:28:31.616Z,9.60
2022-09-28T03:31:05.505Z,9.60
2022-09-28T03:33:37.579Z,9.70
2022-09-28T03:36:09.871Z,9.70
2022-09-28T03:38:42.032Z,9.70
2022-09-28T03:41:13.970Z,9.70
2022-09-28T03:43:45.804Z,9.70
2022-09-28T03:46:17.958Z,9.70
2022-09-28T03:48:50.082Z,9.70
2022-09-28T03:51:21.944Z,9.70
2022-09-28T03:53:53.854Z,9.60
2022-09-28T03:56:26.697Z,9.60
2022-09-28T03:58:58.607Z,9.50
2022-09-28T04:01:30.629Z,9.50
2022-09-28T04:04:02.844Z,9.50
2022-09-28T04:06:34.948Z,9.50
2022-09-28T04:09:07.146Z,9.40
2022-09-28T04:12:02.394Z,9.40
2022-09-28T04:14:31.331Z,9.40
2022-09-28T04:17:03.217Z,9.30
2022-09-28T04:19:36.431Z,9.30
2022-09-28T04:22:08.936Z,9.30
2022-09-28T04:24:43.532Z,9.30
2022-09-28T04:27:34.202Z,9.30
2022-09-28T04:30:26.489Z,9.30
2022-09-28T04:32:58.535Z,9.20
2022-09-28T04:35:30.453Z,9.20
2022-09-28T04:38:02.372Z,9.20
2022-09-28T04:40:34.419Z,9.20
2022-09-28T04:43:06.357Z,9.20
2022-09-28T04:45:38.512Z,9.20
2022-09-28T04:48:10.518Z,9.20
2022-09-28T04:50:42.478Z,9.20
2022-09-28T04:53:14.612Z,9.20
2022-09-28T04:56:02.224Z,9.20
2022-09-28T04:58:36.848Z,9.20
2022-09-28T05:01:13.793Z,9.20
2022-09-28T05:03:47.799Z,9.10
2022-09-28T05:06:20.978Z,9.10
2022-09-28T05:08:53.998Z,9.10
2022-09-28T05:11:28.078Z,9.10
2022-09-28T05:14:00.081Z,9.10
2022-09-28T05:16:33.915Z,9.10
2022-09-28T05:19:06.576Z,9.10
2022-09-28T05:22:03.966Z,9.10
2022-09-28T05:24:37.165Z,9.10
2022-09-28T05:31:14.186Z,9.10
2022-09-28T05:33:46.130Z,9.10
2022-09-28T05:36:18.280Z,9.10
2022-09-28T05:38:51.282Z,9.10
2022-09-28T05:41:23.493Z,9.10
2022-09-28T05:43:56.108Z,9.10
2022-09-28T05:46:29.103Z,9.10
2022-09-28T05:49:01.328Z,9.10
2022-09-28T05:51:33.439Z,9.10
2022-09-28T05:54:06.312Z,9.00
2022-09-28T05:56:39.118Z,9.00
2022-09-28T05:59:12.139Z,9.00
2022-09-28T06:01:44.321Z,9.00
2022-09-28T06:04:17.675Z,9.00
2022-09-28T06:06:49.747Z,9.00
2022-09-28T06:09:25.909Z,9.00
2022-09-28T06:11:59.622Z,9.00
2022-09-28T06:14:31.832Z,9.00
2022-09-28T06:17:03.786Z,9.00
2022-09-28T06:19:35.820Z,9.10
2022-09-28T06:22:08.844Z,9.00
2022-09-28T06:24:40.886Z,9.10
2022-09-28T06:27:12.798Z,9.10
2022-09-28T06:29:46.203Z,9.10
2022-09-28T06:32:18.157Z,9.10
2022-09-28T06:34:55.448Z,9.20
2022-09-28T06:37:28.951Z,9.20
2022-09-28T06:40:03.950Z,9.20
2022-09-28T06:42:36.250Z,9.20
2022-09-28T06:45:08.915Z,9.30
2022-09-28T06:47:41.884Z,9.30
2022-09-28T06:50:14.490Z,9.30
2022-09-28T06:52:49.250Z,9.30
2022-09-28T06:55:23.192Z,9.30
2022-09-28T06:58:00.827Z,9.30
2022-09-28T07:00:37.101Z,9.40
2022-09-28T07:03:15.953Z,9.40
2022-09-28T07:05:53.997Z,9.40
2022-09-28T07:08:28.788Z,9.40
2022-09-28T07:11:06.482Z,9.50
2022-09-28T07:13:50.547Z,9.50
2022-09-28T07:16:27.343Z,9.50
2022-09-28T07:19:04.673Z,9.60
2022-09-28T07:21:37.259Z,9.60
2022-09-28T07:24:14.487Z,9.60
2022-09-28T07:26:46.919Z,9.70
2022-09-28T07:29:18.908Z,9.70
2022-09-28T07:31:54.023Z,9.80
2022-09-28T07:34:25.993Z,9.80
2022-09-28T07:36:59.811Z,9.80
2022-09-28T07:39:31.738Z,9.80
2022-09-28T07:42:25.022Z,9.80
2022-09-28T07:45:01.054Z,9.90
2022-09-28T07:47:35.375Z,10.00
2022-09-28T07:50:07.922Z,10.00
2022-09-28T07:52:40.243Z,10.00
2022-09-28T07:55:15.999Z,10.10
2022-09-28T07:57:55.281Z,10.10
2022-09-28T08:00:33.835Z,10.20
2022-09-28T08:03:06.172Z,10.30
2022-09-28T08:05:39.138Z,10.40
2022-09-28T08:08:15.057Z,10.40
2022-09-28T08:10:47.741Z,10.50
2022-09-28T08:13:23.549Z,10.50
2022-09-28T08:16:03.294Z,10.50
2022-09-28T08:18:36.408Z,10.50
2022-09-28T08:21:28.995Z,10.60
2022-09-28T08:24:24.742Z,10.60
2022-09-28T08:26:59.028Z,10.60
2022-09-28T08:29:31.934Z,10.70
2022-09-28T08:32:08.227Z,10.70
2022-09-28T08:34:41.960Z,10.70
2022-09-28T08:37:14.985Z,10.80
2022-09-28T08:39:47.207Z,10.90
2022-09-28T08:42:39.086Z,11.10
2022-09-28T08:45:27.044Z,11.30
2022-09-28T08:48:24.367Z,11.20
2022-09-28T08:51:33.140Z,11.20
2022-09-28T08:54:20.319Z,11.20
2022-09-28T08:57:18.105Z,11.20
2022-09-28T08:59:58.645Z,11.10
2022-09-28T09:02:34.837Z,11.10
2022-09-28T09:05:14.883Z,11.10
2022-09-28T09:08:28.847Z,11.10
2022-09-28T09:11:18.513Z,11.10
2022-09-28T09:14:46.861Z,11.20
2022-09-28T09:17:59.162Z,11.20
2022-09-28T09:20:56.840Z,11.20
2022-09-28T09:23:38.552Z,11.30
2022-09-28T09:26:40.274Z,11.30
2022-09-28T09:29:42.883Z,11.30
2022-09-28T09:32:43.591Z,11.40
2022-09-28T09:35:37.134Z,11.40
2022-09-28T09:38:51.616Z,11.50
2022-09-28T09:42:10.797Z,11.60
2022-09-28T09:45:14.536Z,11.70
2022-09-28T09:48:17.359Z,11.70
2022-09-28T09:51:03.325Z,11.80
2022-09-28T09:54:03.441Z,11.80
2022-09-28T09:57:07.692Z,11.80
2022-09-28T09:59:47.459Z,11.80
2022-09-28T10:02:27.942Z,11.80
2022-09-28T10:05:27.791Z,11.80
2022-09-28T10:08:15.598Z,11.70
2022-09-28T10:10:53.279Z,11.80
2022-09-28T10:13:36.603Z,11.80
2022-09-28T10:16:09.475Z,11.80
2022-09-28T10:18:41.691Z,11.90
2022-09-28T10:21:15.768Z,11.90
2022-09-28T10:23:57.316Z,11.90
2022-09-28T10:26:37.301Z,11.90
2022-09-28T10:29:19.888Z,11.90
2022-09-28T10:31:55.769Z,11.90
2022-09-28T10:34:30.041Z,11.90
2022-09-28T10:37:06.371Z,11.90
2022-09-28T10:39:55.627Z,12.00
2022-09-28T10:42:31.424Z,12.00
2022-09-28T10:45:20.432Z,12.10
2022-09-28T10:47:55.764Z,12.20
2022-09-28T10:50:29.500Z,12.20
2022-09-28T10:53:20.511Z,12.20
2022-09-28T10:55:59.524Z,12.20
2022-09-28T10:58:42.856Z,12.20
2022-09-28T11:01:20.527Z,12.30
2022-09-28T11:03:58.459Z,12.30
2022-09-28T11:06:39.299Z,12.30
2022-09-28T11:09:41.520Z,12.30
2022-09-28T11:15:06.223Z,12.40
2022-09-28T11:17:48.931Z,12.40
2022-09-28T11:21:03.023Z,12.50
2022-09-28T11:23:42.115Z,12.50
2022-09-28T11:26:59.999Z,12.60
2022-09-28T11:29:46.128Z,12.60
2022-09-28T11:32:44.412Z,12.70
2022-09-28T11:35:25.454Z,12.80
2022-09-28T11:38:18.560Z,13.00
2022-09-28T11:41:49.320Z,13.00
2022-09-28T11:44:48.447Z,13.20
2022-09-28T11:47:50.593Z,13.30
2022-09-28T11:50:32.448Z,13.30
2022-09-28T11:53:40.988Z,13.30
2022-09-28T11:56:38.291Z,13.30
2022-09-28T11:59:38.832Z,13.30
2022-09-28T12:02:45.171Z,13.40
2022-09-28T12:05:44.512Z,13.60
2022-09-28T12:08:28.011Z,13.70
2022-09-28T12:11:17.710Z,13.70
2022-09-28T12:14:01.572Z,13.80
2022-09-28T12:17:08.206Z,13.70
2022-09-28T12:20:01.553Z,13.60
2022-09-28T12:22:59.435Z,13.50
2022-09-28T12:25:46.814Z,13.50
2022-09-28T12:28:42.135Z,13.70
2022-09-28T12:31:28.429Z,13.80
2022-09-28T12:34:10.319Z,13.80
2022-09-28T12:37:10.324Z,13.90
2022-09-28T12:40:25.613Z,14.00
2022-09-28T12:43:40.583Z,14.10
2022-09-28T12:47:11.570Z,14.10
2022-09-28T12:50:39.273Z,14.10
2022-09-28T12:53:55.507Z,14.10
2022-09-28T12:56:44.697Z,14.00
2022-09-28T12:59:31.730Z,14.00
2022-09-28T13:02:29.012Z,14.00
2022-09-28T13:05:33.091Z,14.00
2022-09-28T13:08:36.818Z,14.10
2022-09-28T13:11:53.706Z,14.00
2022-09-28T13:15:00.568Z,14.00
2022-09-28T13:18:08.717Z,14.00
2022-09-28T13:20:51.638Z,14.00
2022-09-28T13:23:46.365Z,14.10
2022-09-28T13:26:30.054Z,14.20
2022-09-28T13:29:14.572Z,14.30
2022-09-28T13:31:57.340Z,14.30
2022-09-28T13:34:36.304Z,14.20
2022-09-28T13:37:17.615Z,14.20
2022-09-28T13:39:59.831Z,14.20
2022-09-28T13:42:51.112Z,14.20
2022-09-28T13:45:58.734Z,14.30
2022-09-28T13:49:04.695Z,14.50
2022-09-28T13:51:55.335Z,14.60
2022-09-28T13:55:18.144Z,14.60
2022-09-28T13:58:15.370Z,14.60
2022-09-28T14:01:14.228Z,14.70
2022-09-28T14:04:21.869Z,14.60
2022-09-28T14:07:09.581Z,14.60
2022-09-28T14:10:21.799Z,14.50
2022-09-28T14:13:33.629Z,14.50
2022-09-28T14:16:28.103Z,14.50
2022-09-28T14:19:24.310Z,14.40
2022-09-28T14:22:24.851Z,14.50
2022-09-28T14:25:24.500Z,14.50
2022-09-28T14:28:07.764Z,14.40
2022-09-28T14:31:08.784Z,14.40
2022-09-28T14:33:59.578Z,14.40
2022-09-28T14:37:10.155Z,14.40
2022-09-28T14:40:39.850Z,14.50
2022-09-28T14:43:34.633Z,14.60
2022-09-28T14:46:33.363Z,14.70
2022-09-28T14:49:19.251Z,14.70
2022-09-28T14:52:13.501Z,14.80
2022-09-28T14:54:53.580Z,14.80
2022-09-28T14:57:31.195Z,14.70
2022-09-28T15:00:14.765Z,14.60
2022-09-28T15:02:54.121Z,14.50
2022-09-28T15:05:41.800Z,14.30
2022-09-28T15:08:20.979Z,14.10
2022-09-28T15:10:53.654Z,14.00
2022-09-28T15:13:28.011Z,13.90
2022-09-28T15:16:07.435Z,13.80
2022-09-28T15:18:56.598Z,13.90
2022-09-28T15:21:50.054Z,13.80
2022-09-28T15:24:33.738Z,13.80
2022-09-28T15:27:16.050Z,13.80
2022-09-28T15:29:57.989Z,13.80
2022-09-28T15:32:33.392Z,13.80
2022-09-28T15:35:17.415Z,13.80
2022-09-28T15:37:55.721Z,13.80
2022-09-28T15:40:28.066Z,13.70
2022-09-28T15:43:24.171Z,13.70
2022-09-28T15:46:18.580Z,13.60
2022-09-28T15:48:56.071Z,13.50
2022-09-28T15:51:31.105Z,13.50
2022-09-28T15:54:21.536Z,13.40
2022-09-28T15:57:02.783Z,13.40
2022-09-28T15:59:39.803Z,13.30
2022-09-28T16:02:17.317Z,13.20
2022-09-28T16:04:54.562Z,13.20
2022-09-28T16:07:35.437Z,13.20
2022-09-28T16:10:15.346Z,13.10
2022-09-28T16:13:15.623Z,13.00
2022-09-28T16:15:58.207Z,13.00
2022-09-28T16:18:34.132Z,12.90
2022-09-28T16:21:42.790Z,12.90
2022-09-28T16:24:26.764Z,12.80
2022-09-28T16:27:22.276Z,12.80
2022-09-28T16:30:29.776Z,12.80
2022-09-28T16:33:26.047Z,12.70
2022-09-28T16:36:03.382Z,12.70
2022-09-28T16:38:46.083Z,12.60
2022-09-28T16:41:27.081Z,12.50
2022-09-28T16:44:02.704Z,12.50
2022-09-28T16:46:37.759Z,12.40
2022-09-28T16:49:18.780Z,12.30
2022-09-28T16:51:51.837Z,12.20
2022-09-28T16:54:43.928Z,12.10
2022-09-28T16:57:36.987Z,12.10
2022-09-28T17:00:16.122Z,12.00
2022-09-28T17:02:53.042Z,11.90
2022-09-28T17:05:26.565Z,11.80
2022-09-28T17:08:04.596Z,11.70
2022-09-28T17:11:09.344Z,11.70
2022-09-28T17:13:37.540Z,11.60
2022-09-28T17:16:28.198Z,11.40
2022-09-28T17:19:25.750Z,11.30
2022-09-28T17:21:59.653Z,11.20
2022-09-28T17:24:32.396Z,11.10
2022-09-28T17:27:06.972Z,11.00
2022-09-28T17:29:47.153Z,10.90
2022-09-28T17:32:20.132Z,10.80
2022-09-28T17:35:06.434Z,10.80
2022-09-28T17:37:44.472Z,10.70
2022-09-28T17:40:28.809Z,10.60
2022-09-28T17:43:06.032Z,10.50
2022-09-28T17:45:41.450Z,10.50
2022-09-28T17:48:18.003Z,10.40
2022-09-28T17:50:51.271Z,10.40
2022-09-28T17:53:24.233Z,10.30
2022-09-28T17:55:56.675Z,10.20
2022-09-28T17:58:29.429Z,10.20
2022-09-28T18:01:01.578Z,10.10
2022-09-28T18:03:34.246Z,10.10
2022-09-28T18:06:13.354Z,10.00
2022-09-28T18:09:30.370Z,10.00
2022-09-28T18:12:10.692Z,9.90
2022-09-28T18:14:50.057Z,9.80
2022-09-28T18:17:24.161Z,9.80
2022-09-28T18:19:56.911Z,9.70
2022-09-28T18:22:29.088Z,9.70
2022-09-28T18:25:04.178Z,9.60
2022-09-28T18:27:37.297Z,9.50
2022-09-28T18:30:09.943Z,9.50
2022-09-28T18:32:42.187Z,9.40
2022-09-28T18:35:14.372Z,9.40
2022-09-28T18:37:46.843Z,9.40
2022-09-28T18:40:20.271Z,9.40
2022-09-28T18:42:52.760Z,9.40
2022-09-28T18:45:25.097Z,9.30
2022-09-28T18:47:57.942Z,9.40
2022-09-28T18:50:31.253Z,9.30
2022-09-28T18:53:13.364Z,9.30
2022-09-28T18:55:45.598Z,9.30
2022-09-28T18:58:17.631Z,9.30
2022-09-28T19:00:50.081Z,9.30
2022-09-28T19:03:23.139Z,9.30
2022-09-28T19:05:55.721Z,9.20
2022-09-28T19:08:27.907Z,9.20
2022-09-28T19:11:08.630Z,9.20
2022-09-28T19:13:44.278Z,9.20
2022-09-28T19:16:20.679Z,9.20
2022-09-28T19:19:00.938Z,9.10
2022-09-28T19:21:34.062Z,9.10
2022-09-28T19:24:06.909Z,9.10
2022-09-28T19:26:46.336Z,9.10
2022-09-28T19:29:19.221Z,9.10
2022-09-28T19:31:51.926Z,9.10
2022-09-28T19:34:27.114Z,9.10
2022-09-28T19:37:03.926Z,9.10
2022-09-28T19:39:36.404Z,9.10
2022-09-28T19:42:08.596Z,9.10
2022-09-28T19:44:40.797Z,9.10
2022-09-28T19:47:13.353Z,9.10
2022-09-28T19:49:46.726Z,9.10
2022-09-28T19:52:19.035Z,9.10
2022-09-28T19:54:58.218Z,9.10
2022-09-28T19:57:32.598Z,9.10
2022-09-28T20:00:06.258Z,9.00
2022-09-28T20:02:39.421Z,9.00
2022-09-28T20:05:11.803Z,9.00
2022-09-28T20:08:06.505Z,8.90
2022-09-28T20:10:39.891Z,8.90
2022-09-28T20:13:29.585Z,8.90
2022-09-28T20:16:15.513Z,8.90
2022-09-28T20:18:52.177Z,8.80
2022-09-28T20:21:29.744Z,8.80
2022-09-28T20:24:02.065Z,8.80
2022-09-28T20:26:37.730Z,8.80
2022-09-28T20:29:10.723Z,8.80
2022-09-28T20:31:44.038Z,8.80
2022-09-28T20:34:16.772Z,8.80
2022-09-28T20:36:49.422Z,8.80
2022-09-28T20:39:21.608Z,8.80
2022-09-28T20:41:55.072Z,8.70
2022-09-28T20:44:28.526Z,8.70
2022-09-28T20:47:01.213Z,8.70
2022-09-28T20:49:33.355Z,8.70
2022-09-28T20:52:05.470Z,8.70
2022-09-28T20:54:38.134Z,8.70
2022-09-28T20:57:19.135Z,8.70
2022-09-28T20:59:54.663Z,8.60
2022-09-28T21:02:27.173Z,8.60
2022-09-28T21:04:59.374Z,8.60
2022-09-28T21:07:31.614Z,8.60
2022-09-28T21:10:04.112Z,8.60
2022-09-28T21:12:38.930Z,8.50
2022-09-28T21:15:11.655Z,8.50
2022-09-28T21:17:43.955Z,8.50
2022-09-28T21:20:16.091Z,8.50
2022-09-28T21:23:24.606Z,8.50
2022-09-28T21:26:05.823Z,8.50
2022-09-28T21:28:41.639Z,8.40
2022-09-28T21:31:15.630Z,8.50
2022-09-28T21:33:47.682Z,8.50
2022-09-28T21:36:53.375Z,8.50
2022-09-28T21:39:25.491Z,8.50
2022-09-28T21:41:57.587Z,8.50
2022-09-28T21:44:29.511Z,8.50
2022-09-28T21:47:01.749Z,8.50
2022-09-28T21:49:33.853Z,8.50
2022-09-28T21:52:06.081Z,8.50
2022-09-28T21:54:38.278Z,8.50
2022-09-28T21:57:11.355Z,8.50
2022-09-28T21:59:43.397Z,8.50
2022-09-28T22:02:15.513Z,8.50
2022-09-28T22:04:47.694Z,8.50
2022-09-28T22:07:19.673Z,8.50
2022-09-28T22:09:53.603Z,8.50
2022-09-28T22:12:25.724Z,8.50
2022-09-28T22:14:59.711Z,8.50
2022-09-28T22:17:31.643Z,8.40
2022-09-28T22:20:04.682Z,8.50
2022-09-28T22:22:37.098Z,8.50
2022-09-28T22:25:09.225Z,8.50
2022-09-28T22:27:41.215Z,8.40
2022-09-28T22:30:13.435Z,8.50
2022-09-28T22:32:45.526Z,8.40
2022-09-28T22:35:17.433Z,8.40
2022-09-28T22:37:49.480Z,8.40
2022-09-28T22:40:21.379Z,8.40
2022-09-28T22:42:54.702Z,8.40
2022-09-28T22:45:26.688Z,8.40
2022-09-28T22:47:58.607Z,8.40
2022-09-28T22:50:31.534Z,8.40
2022-09-28T22:53:03.567Z,8.30
2022-09-28T22:55:36.759Z,8.30
2022-09-28T22:58:08.746Z,8.30
2022-09-28T23:00:40.860Z,8.30
2022-09-28T23:03:13.960Z,8.20
2022-09-28T23:05:54.057Z,8.20
2022-09-28T23:08:26.678Z,8.10
2022-09-28T23:10:59.542Z,8.10
2022-09-28T23:13:32.091Z,8.00
2022-09-28T23:16:07.288Z,7.90
2022-09-28T23:18:43.567Z,7.80
2022-09-28T23:21:18.447Z,7.80
2022-09-28T23:23:58.347Z,7.70
2022-09-28T23:26:33.150Z,7.60
2022-09-28T23:29:07.537Z,7.60
2022-09-28T23:31:41.807Z,7.50
2022-09-28T23:34:13.912Z,7.40
2022-09-28T23:36:45.997Z,7.30
2022-09-28T23:39:17.924Z,7.30
2022-09-28T23:41:50.247Z,7.20
2022-09-28T23:44:22.195Z,7.20
2022-09-28T23:46:55.137Z,7.10
2022-09-28T23:49:28.527Z,7.10
2022-09-28T23:52:01.062Z,7.10
2022-09-28T23:54:32.956Z,7.10
2022-09-28T23:57:04.829Z,7.00
2022-09-28T23:59:36.825Z,7.00
